sensor_id;sensor_type;location;lat;lon;timestamp;pressure;altitude;pressure_sealevel;temperature;humidity
75089;BME280;63673;49.928;8.150;2024-03-29T00:00:54;972.72;;;4.37;100
75089;BME280;63673;49.928;8.150;2024-03-29T00:01:56;972.69;;;4.36;100
75089;BME280;63673;49.928;8.150;2024-03-29T00:02:58;972.65;;;4.35;100
75089;BME280;63673;49.928;8.150;2024-03-29T00:03:59;972.59;;;4.35;100
75089;BME280;63673;49.928;8.150;2024-03-29T00:05:01;972.52;;;4.35;100
75089;BME280;63673;49.928;8.150;2024-03-29T00:06:03;972.42;;;4.35;100
75089;BME280;63673;49.928;8.150;2024-03-29T00:07:04;972.43;;;4.34;100
75089;BME280;63673;49.928;8.150;2024-03-29T00:08:06;972.39;;;4.34;100
75089;BME280;63673;49.928;8.150;2024-03-29T00:09:08;972.35;;;4.35;100
75089;BME280;63673;49.928;8.150;2024-03-29T00:10:10;972.35;;;4.36;100
75089;BME280;63673;49.928;8.150;2024-03-29T00:11:11;972.33;;;4.37;100
75089;BME280;63673;49.928;8.150;2024-03-29T00:12:13;972.36;;;4.37;100
75089;BME280;63673;49.928;8.150;2024-03-29T00:13:15;972.45;;;4.38;100
75089;BME280;63673;49.928;8.150;2024-03-29T00:14:16;972.39;;;4.38;100
75089;BME280;63673;49.928;8.150;2024-03-29T00:15:18;972.41;;;4.38;100
75089;BME280;63673;49.928;8.150;2024-03-29T00:16:21;972.43;;;4.38;100
75089;BME280;63673;49.928;8.150;2024-03-29T00:17:22;972.24;;;4.4;100
75089;BME280;63673;49.928;8.150;2024-03-29T00:18:23;972.17;;;4.41;100
75089;BME280;63673;49.928;8.150;2024-03-29T00:19:25;972.07;;;4.43;100
75089;BME280;63673;49.928;8.150;2024-03-29T00:20:27;972.19;;;4.45;100
75089;BME280;63673;49.928;8.150;2024-03-29T00:21:29;972.22;;;4.47;100
75089;BME280;63673;49.928;8.150;2024-03-29T00:22:30;972.1;;;4.48;100
75089;BME280;63673;49.928;8.150;2024-03-29T00:23:32;972.1;;;4.51;100
75089;BME280;63673;49.928;8.150;2024-03-29T00:24:34;972.09;;;4.54;100
75089;BME280;63673;49.928;8.150;2024-03-29T00:25:35;972.13;;;4.58;100
75089;BME280;63673;49.928;8.150;2024-03-29T00:26:37;972.1;;;4.59;100
75089;BME280;63673;49.928;8.150;2024-03-29T00:27:39;972.09;;;4.63;100
75089;BME280;63673;49.928;8.150;2024-03-29T00:28:41;972.17;;;4.65;100
75089;BME280;63673;49.928;8.150;2024-03-29T00:29:42;972.12;;;4.68;100
75089;BME280;63673;49.928;8.150;2024-03-29T00:30:44;972.07;;;4.69;100
75089;BME280;63673;49.928;8.150;2024-03-29T00:31:46;972.1;;;4.72;100
75089;BME280;63673;49.928;8.150;2024-03-29T00:32:48;972.08;;;4.73;100
75089;BME280;63673;49.928;8.150;2024-03-29T00:33:49;972.1;;;4.75;100
75089;BME280;63673;49.928;8.150;2024-03-29T00:34:51;972.06;;;4.76;100
75089;BME280;63673;49.928;8.150;2024-03-29T00:35:53;972.06;;;4.78;100
75089;BME280;63673;49.928;8.150;2024-03-29T00:36:54;972.01;;;4.79;100
75089;BME280;63673;49.928;8.150;2024-03-29T00:37:56;972.05;;;4.8;100
75089;BME280;63673;49.928;8.150;2024-03-29T00:38:58;971.99;;;4.81;100
75089;BME280;63673;49.928;8.150;2024-03-29T00:40:00;972.03;;;4.82;100
75089;BME280;63673;49.928;8.150;2024-03-29T00:41:01;971.99;;;4.83;100
75089;BME280;63673;49.928;8.150;2024-03-29T00:42:03;972.01;;;4.84;100
75089;BME280;63673;49.928;8.150;2024-03-29T00:43:05;972.03;;;4.85;100
75089;BME280;63673;49.928;8.150;2024-03-29T00:44:07;971.99;;;4.87;100
75089;BME280;63673;49.928;8.150;2024-03-29T00:45:08;971.92;;;4.88;100
75089;BME280;63673;49.928;8.150;2024-03-29T00:46:10;971.99;;;4.89;100
75089;BME280;63673;49.928;8.150;2024-03-29T00:47:12;971.95;;;4.89;100
75089;BME280;63673;49.928;8.150;2024-03-29T00:48:13;971.94;;;4.9;100
75089;BME280;63673;49.928;8.150;2024-03-29T00:49:15;971.92;;;4.91;100
75089;BME280;63673;49.928;8.150;2024-03-29T00:50:17;971.89;;;4.92;100
75089;BME280;63673;49.928;8.150;2024-03-29T00:51:19;971.92;;;4.93;100
75089;BME280;63673;49.928;8.150;2024-03-29T00:52:20;971.92;;;4.94;100
75089;BME280;63673;49.928;8.150;2024-03-29T00:53:22;971.88;;;4.94;100
75089;BME280;63673;49.928;8.150;2024-03-29T00:54:24;971.9;;;4.95;100
75089;BME280;63673;49.928;8.150;2024-03-29T00:55:26;971.9;;;4.96;100
75089;BME280;63673;49.928;8.150;2024-03-29T00:56:27;971.86;;;4.97;100
75089;BME280;63673;49.928;8.150;2024-03-29T00:57:29;971.9;;;4.97;100
75089;BME280;63673;49.928;8.150;2024-03-29T00:58:31;971.88;;;4.99;100
75089;BME280;63673;49.928;8.150;2024-03-29T00:59:32;971.94;;;4.98;100
75089;BME280;63673;49.928;8.150;2024-03-29T01:00:34;971.87;;;4.99;100
75089;BME280;63673;49.928;8.150;2024-03-29T01:01:36;971.93;;;5;100
75089;BME280;63673;49.928;8.150;2024-03-29T01:02:38;971.88;;;5;100
75089;BME280;63673;49.928;8.150;2024-03-29T01:03:39;971.9;;;5.02;100
75089;BME280;63673;49.928;8.150;2024-03-29T01:04:41;971.9;;;5.01;100
75089;BME280;63673;49.928;8.150;2024-03-29T01:05:43;971.91;;;5.03;100
75089;BME280;63673;49.928;8.150;2024-03-29T01:06:44;971.92;;;5.03;100
75089;BME280;63673;49.928;8.150;2024-03-29T01:07:46;971.93;;;5.05;100
75089;BME280;63673;49.928;8.150;2024-03-29T01:08:48;971.92;;;5.05;100
75089;BME280;63673;49.928;8.150;2024-03-29T01:09:50;971.87;;;5.06;100
75089;BME280;63673;49.928;8.150;2024-03-29T01:10:51;971.85;;;5.06;100
75089;BME280;63673;49.928;8.150;2024-03-29T01:11:53;971.79;;;5.08;100
75089;BME280;63673;49.928;8.150;2024-03-29T01:12:55;971.87;;;5.09;100
75089;BME280;63673;49.928;8.150;2024-03-29T01:13:57;971.88;;;5.1;100
75089;BME280;63673;49.928;8.150;2024-03-29T01:14:58;971.88;;;5.1;100
75089;BME280;63673;49.928;8.150;2024-03-29T01:16:00;971.91;;;5.11;100
75089;BME280;63673;49.928;8.150;2024-03-29T01:17:02;971.92;;;5.11;100
75089;BME280;63673;49.928;8.150;2024-03-29T01:18:04;971.91;;;5.11;100
75089;BME280;63673;49.928;8.150;2024-03-29T01:19:05;971.91;;;5.12;100
75089;BME280;63673;49.928;8.150;2024-03-29T01:20:07;971.87;;;5.12;100
75089;BME280;63673;49.928;8.150;2024-03-29T01:21:09;971.9;;;5.13;100
75089;BME280;63673;49.928;8.150;2024-03-29T01:22:10;971.86;;;5.13;100
75089;BME280;63673;49.928;8.150;2024-03-29T01:23:12;971.71;;;5.16;100
75089;BME280;63673;49.928;8.150;2024-03-29T01:24:14;971.72;;;5.16;100
75089;BME280;63673;49.928;8.150;2024-03-29T01:25:16;971.72;;;5.17;100
75089;BME280;63673;49.928;8.150;2024-03-29T01:26:17;971.71;;;5.19;100
75089;BME280;63673;49.928;8.150;2024-03-29T01:27:19;971.62;;;5.22;100
75089;BME280;63673;49.928;8.150;2024-03-29T01:28:21;971.52;;;5.24;100
75089;BME280;63673;49.928;8.150;2024-03-29T01:29:23;971.43;;;5.24;100
75089;BME280;63673;49.928;8.150;2024-03-29T01:30:24;971.32;;;5.25;100
75089;BME280;63673;49.928;8.150;2024-03-29T01:31:26;971.4;;;5.25;100
75089;BME280;63673;49.928;8.150;2024-03-29T01:32:28;971.39;;;5.27;100
75089;BME280;63673;49.928;8.150;2024-03-29T01:33:29;971.32;;;5.28;100
75089;BME280;63673;49.928;8.150;2024-03-29T01:34:31;971.35;;;5.29;100
75089;BME280;63673;49.928;8.150;2024-03-29T01:35:33;971.33;;;5.29;100
75089;BME280;63673;49.928;8.150;2024-03-29T01:36:35;971.28;;;5.29;100
75089;BME280;63673;49.928;8.150;2024-03-29T01:37:36;971.25;;;5.3;100
75089;BME280;63673;49.928;8.150;2024-03-29T01:38:38;971.16;;;5.31;100
75089;BME280;63673;49.928;8.150;2024-03-29T01:39:40;971.21;;;5.34;100
75089;BME280;63673;49.928;8.150;2024-03-29T01:40:42;971.28;;;5.34;100
75089;BME280;63673;49.928;8.150;2024-03-29T01:41:43;971.32;;;5.33;100
75089;BME280;63673;49.928;8.150;2024-03-29T01:42:45;971.32;;;5.34;100
75089;BME280;63673;49.928;8.150;2024-03-29T01:43:47;971.41;;;5.35;100
75089;BME280;63673;49.928;8.150;2024-03-29T01:44:48;971.47;;;5.35;100
75089;BME280;63673;49.928;8.150;2024-03-29T01:45:51;971.5;;;5.35;100
75089;BME280;63673;49.928;8.150;2024-03-29T01:46:52;971.49;;;5.36;100
75089;BME280;63673;49.928;8.150;2024-03-29T01:47:54;971.47;;;5.36;100
75089;BME280;63673;49.928;8.150;2024-03-29T01:48:55;971.41;;;5.36;100
75089;BME280;63673;49.928;8.150;2024-03-29T01:49:57;971.36;;;5.37;100
75089;BME280;63673;49.928;8.150;2024-03-29T01:50:59;971.41;;;5.37;100
75089;BME280;63673;49.928;8.150;2024-03-29T01:52:01;971.46;;;5.39;100
75089;BME280;63673;49.928;8.150;2024-03-29T01:53:02;971.43;;;5.39;100
75089;BME280;63673;49.928;8.150;2024-03-29T01:54:04;971.44;;;5.41;100
75089;BME280;63673;49.928;8.150;2024-03-29T01:55:06;971.47;;;5.46;100
75089;BME280;63673;49.928;8.150;2024-03-29T01:56:08;971.38;;;5.47;100
75089;BME280;63673;49.928;8.150;2024-03-29T01:57:09;971.45;;;5.54;100
75089;BME280;63673;49.928;8.150;2024-03-29T01:58:11;971.46;;;5.57;100
75089;BME280;63673;49.928;8.150;2024-03-29T01:59:13;971.48;;;5.62;100
75089;BME280;63673;49.928;8.150;2024-03-29T02:00:14;971.47;;;5.67;100
75089;BME280;63673;49.928;8.150;2024-03-29T02:01:16;971.54;;;5.7;100
75089;BME280;63673;49.928;8.150;2024-03-29T02:02:18;971.63;;;5.74;100
75089;BME280;63673;49.928;8.150;2024-03-29T02:03:19;971.65;;;5.78;100
75089;BME280;63673;49.928;8.150;2024-03-29T02:04:21;971.69;;;5.81;100
75089;BME280;63673;49.928;8.150;2024-03-29T02:05:23;971.74;;;5.83;100
75089;BME280;63673;49.928;8.150;2024-03-29T02:06:25;971.7;;;5.85;100
75089;BME280;63673;49.928;8.150;2024-03-29T02:07:26;971.68;;;5.87;100
75089;BME280;63673;49.928;8.150;2024-03-29T02:08:28;971.59;;;5.9;100
75089;BME280;63673;49.928;8.150;2024-03-29T02:09:30;971.56;;;5.91;100
75089;BME280;63673;49.928;8.150;2024-03-29T02:10:31;971.53;;;5.93;100
75089;BME280;63673;49.928;8.150;2024-03-29T02:11:33;971.59;;;5.94;100
75089;BME280;63673;49.928;8.150;2024-03-29T02:12:35;971.62;;;5.95;100
75089;BME280;63673;49.928;8.150;2024-03-29T02:13:37;971.76;;;5.96;100
75089;BME280;63673;49.928;8.150;2024-03-29T02:14:38;971.86;;;5.98;100
75089;BME280;63673;49.928;8.150;2024-03-29T02:15:40;972.03;;;6.01;100
75089;BME280;63673;49.928;8.150;2024-03-29T02:16:42;972.04;;;6.01;100
75089;BME280;63673;49.928;8.150;2024-03-29T02:17:44;971.98;;;6.03;100
75089;BME280;63673;49.928;8.150;2024-03-29T02:18:45;972.03;;;6.04;100
75089;BME280;63673;49.928;8.150;2024-03-29T02:19:47;972.01;;;6.06;100
75089;BME280;63673;49.928;8.150;2024-03-29T02:20:49;971.99;;;6.07;100
75089;BME280;63673;49.928;8.150;2024-03-29T02:21:50;971.92;;;6.08;100
75089;BME280;63673;49.928;8.150;2024-03-29T02:22:53;971.83;;;6.08;100
75089;BME280;63673;49.928;8.150;2024-03-29T02:23:59;971.72;;;6.11;100
75089;BME280;63673;49.928;8.150;2024-03-29T02:24:56;971.63;;;6.12;100
75089;BME280;63673;49.928;8.150;2024-03-29T02:25:57;971.68;;;6.11;100
75089;BME280;63673;49.928;8.150;2024-03-29T02:26:59;971.8;;;6.14;100
75089;BME280;63673;49.928;8.150;2024-03-29T02:28:01;971.78;;;6.14;100
75089;BME280;63673;49.928;8.150;2024-03-29T02:29:03;971.74;;;6.14;100
75089;BME280;63673;49.928;8.150;2024-03-29T02:30:05;971.72;;;6.15;100
75089;BME280;63673;49.928;8.150;2024-03-29T02:31:06;971.81;;;6.16;100
75089;BME280;63673;49.928;8.150;2024-03-29T02:32:08;971.78;;;6.15;100
75089;BME280;63673;49.928;8.150;2024-03-29T02:33:09;971.8;;;6.16;100
75089;BME280;63673;49.928;8.150;2024-03-29T02:34:11;971.78;;;6.15;100
75089;BME280;63673;49.928;8.150;2024-03-29T02:35:13;971.67;;;6.15;100
75089;BME280;63673;49.928;8.150;2024-03-29T02:36:15;971.7;;;6.14;100
75089;BME280;63673;49.928;8.150;2024-03-29T02:37:16;971.76;;;6.14;100
75089;BME280;63673;49.928;8.150;2024-03-29T02:38:18;971.68;;;6.14;100
75089;BME280;63673;49.928;8.150;2024-03-29T02:39:20;971.62;;;6.14;100
75089;BME280;63673;49.928;8.150;2024-03-29T02:40:22;971.57;;;6.14;100
75089;BME280;63673;49.928;8.150;2024-03-29T02:41:23;971.51;;;6.13;100
75089;BME280;63673;49.928;8.150;2024-03-29T02:42:25;971.47;;;6.13;100
75089;BME280;63673;49.928;8.150;2024-03-29T02:43:27;971.4;;;6.13;100
75089;BME280;63673;49.928;8.150;2024-03-29T02:44:29;971.38;;;6.11;100
75089;BME280;63673;49.928;8.150;2024-03-29T02:45:30;971.29;;;6.11;100
75089;BME280;63673;49.928;8.150;2024-03-29T02:46:32;971.24;;;6.11;100
75089;BME280;63673;49.928;8.150;2024-03-29T02:47:34;971.18;;;6.11;100
75089;BME280;63673;49.928;8.150;2024-03-29T02:48:35;971.17;;;6.11;100
75089;BME280;63673;49.928;8.150;2024-03-29T02:49:37;971.09;;;6.12;100
75089;BME280;63673;49.928;8.150;2024-03-29T02:50:39;971.05;;;6.13;100
75089;BME280;63673;49.928;8.150;2024-03-29T02:51:40;971.09;;;6.14;100
75089;BME280;63673;49.928;8.150;2024-03-29T02:52:42;971.07;;;6.14;100
75089;BME280;63673;49.928;8.150;2024-03-29T02:53:44;971.08;;;6.15;100
75089;BME280;63673;49.928;8.150;2024-03-29T02:54:46;971.07;;;6.16;100
75089;BME280;63673;49.928;8.150;2024-03-29T02:55:47;971.14;;;6.16;100
75089;BME280;63673;49.928;8.150;2024-03-29T02:56:49;971.13;;;6.17;100
75089;BME280;63673;49.928;8.150;2024-03-29T02:57:51;971.31;;;6.17;100
75089;BME280;63673;49.928;8.150;2024-03-29T02:58:53;971.24;;;6.17;100
75089;BME280;63673;49.928;8.150;2024-03-29T02:59:54;971.29;;;6.17;100
75089;BME280;63673;49.928;8.150;2024-03-29T03:00:56;971.47;;;6.17;100
75089;BME280;63673;49.928;8.150;2024-03-29T03:01:58;971.37;;;6.17;100
75089;BME280;63673;49.928;8.150;2024-03-29T03:03:00;971.77;;;6.18;100
75089;BME280;63673;49.928;8.150;2024-03-29T03:04:01;971.69;;;6.22;100
75089;BME280;63673;49.928;8.150;2024-03-29T03:05:03;971.91;;;6.27;100
75089;BME280;63673;49.928;8.150;2024-03-29T03:06:05;971.87;;;6.28;100
75089;BME280;63673;49.928;8.150;2024-03-29T03:07:06;971.81;;;6.31;100
75089;BME280;63673;49.928;8.150;2024-03-29T03:08:08;971.82;;;6.34;100
75089;BME280;63673;49.928;8.150;2024-03-29T03:09:10;971.87;;;6.37;100
75089;BME280;63673;49.928;8.150;2024-03-29T03:10:12;971.79;;;6.38;100
75089;BME280;63673;49.928;8.150;2024-03-29T03:11:13;971.79;;;6.4;100
75089;BME280;63673;49.928;8.150;2024-03-29T03:12:15;971.77;;;6.42;100
75089;BME280;63673;49.928;8.150;2024-03-29T03:13:17;971.82;;;6.42;100
75089;BME280;63673;49.928;8.150;2024-03-29T03:14:18;971.76;;;6.42;100
75089;BME280;63673;49.928;8.150;2024-03-29T03:15:20;971.77;;;6.44;100
75089;BME280;63673;49.928;8.150;2024-03-29T03:16:22;971.83;;;6.43;100
75089;BME280;63673;49.928;8.150;2024-03-29T03:17:24;971.82;;;6.44;100
75089;BME280;63673;49.928;8.150;2024-03-29T03:18:25;971.68;;;6.45;100
75089;BME280;63673;49.928;8.150;2024-03-29T03:19:27;971.69;;;6.44;100
75089;BME280;63673;49.928;8.150;2024-03-29T03:20:29;971.77;;;6.44;100
75089;BME280;63673;49.928;8.150;2024-03-29T03:21:31;971.68;;;6.44;100
75089;BME280;63673;49.928;8.150;2024-03-29T03:22:32;971.72;;;6.43;100
75089;BME280;63673;49.928;8.150;2024-03-29T03:23:34;971.75;;;6.43;100
75089;BME280;63673;49.928;8.150;2024-03-29T03:24:36;971.74;;;6.42;100
75089;BME280;63673;49.928;8.150;2024-03-29T03:25:37;971.79;;;6.41;100
75089;BME280;63673;49.928;8.150;2024-03-29T03:26:39;971.8;;;6.39;100
75089;BME280;63673;49.928;8.150;2024-03-29T03:27:41;971.84;;;6.39;100
75089;BME280;63673;49.928;8.150;2024-03-29T03:28:43;971.8;;;6.38;100
75089;BME280;63673;49.928;8.150;2024-03-29T03:29:44;971.71;;;6.36;100
75089;BME280;63673;49.928;8.150;2024-03-29T03:30:46;971.69;;;6.35;100
75089;BME280;63673;49.928;8.150;2024-03-29T03:31:48;971.6;;;6.34;100
75089;BME280;63673;49.928;8.150;2024-03-29T03:32:49;971.58;;;6.32;100
75089;BME280;63673;49.928;8.150;2024-03-29T03:33:51;971.74;;;6.3;100
75089;BME280;63673;49.928;8.150;2024-03-29T03:34:53;971.74;;;6.3;100
75089;BME280;63673;49.928;8.150;2024-03-29T03:35:55;971.65;;;6.29;100
75089;BME280;63673;49.928;8.150;2024-03-29T03:36:56;971.69;;;6.26;100
75089;BME280;63673;49.928;8.150;2024-03-29T03:37:58;971.72;;;6.25;100
75089;BME280;63673;49.928;8.150;2024-03-29T03:39:00;971.85;;;6.24;100
75089;BME280;63673;49.928;8.150;2024-03-29T03:40:02;971.81;;;6.23;100
75089;BME280;63673;49.928;8.150;2024-03-29T03:41:03;971.76;;;6.22;100
75089;BME280;63673;49.928;8.150;2024-03-29T03:42:05;971.85;;;6.22;100
75089;BME280;63673;49.928;8.150;2024-03-29T03:43:07;971.84;;;6.23;100
75089;BME280;63673;49.928;8.150;2024-03-29T03:44:08;971.73;;;6.26;100
75089;BME280;63673;49.928;8.150;2024-03-29T03:45:10;971.77;;;6.27;100
75089;BME280;63673;49.928;8.150;2024-03-29T03:46:12;971.7;;;6.29;100
75089;BME280;63673;49.928;8.150;2024-03-29T03:47:14;971.72;;;6.31;100
75089;BME280;63673;49.928;8.150;2024-03-29T03:48:15;971.69;;;6.32;100
75089;BME280;63673;49.928;8.150;2024-03-29T03:49:17;971.72;;;6.34;100
75089;BME280;63673;49.928;8.150;2024-03-29T03:50:19;971.73;;;6.34;100
75089;BME280;63673;49.928;8.150;2024-03-29T03:51:21;971.81;;;6.36;100
75089;BME280;63673;49.928;8.150;2024-03-29T03:52:22;971.82;;;6.36;100
75089;BME280;63673;49.928;8.150;2024-03-29T03:53:24;971.77;;;6.37;100
75089;BME280;63673;49.928;8.150;2024-03-29T03:54:26;971.84;;;6.38;100
75089;BME280;63673;49.928;8.150;2024-03-29T03:55:27;971.79;;;6.38;100
75089;BME280;63673;49.928;8.150;2024-03-29T03:56:29;971.78;;;6.38;100
75089;BME280;63673;49.928;8.150;2024-03-29T03:57:31;971.75;;;6.38;100
75089;BME280;63673;49.928;8.150;2024-03-29T03:58:33;971.74;;;6.38;100
75089;BME280;63673;49.928;8.150;2024-03-29T03:59:34;971.75;;;6.37;100
75089;BME280;63673;49.928;8.150;2024-03-29T04:00:37;971.69;;;6.36;100
75089;BME280;63673;49.928;8.150;2024-03-29T04:01:38;971.75;;;6.36;100
75089;BME280;63673;49.928;8.150;2024-03-29T04:02:40;971.7;;;6.35;100
75089;BME280;63673;49.928;8.150;2024-03-29T04:03:41;971.71;;;6.33;100
75089;BME280;63673;49.928;8.150;2024-03-29T04:04:46;971.62;;;6.33;100
75089;BME280;63673;49.928;8.150;2024-03-29T04:05:45;971.59;;;6.33;100
75089;BME280;63673;49.928;8.150;2024-03-29T04:06:47;971.58;;;6.32;100
75089;BME280;63673;49.928;8.150;2024-03-29T04:07:48;971.6;;;6.32;100
75089;BME280;63673;49.928;8.150;2024-03-29T04:08:50;971.59;;;6.31;100
75089;BME280;63673;49.928;8.150;2024-03-29T04:09:52;971.48;;;6.31;100
75089;BME280;63673;49.928;8.150;2024-03-29T04:10:53;971.45;;;6.31;100
75089;BME280;63673;49.928;8.150;2024-03-29T04:11:55;971.44;;;6.31;100
75089;BME280;63673;49.928;8.150;2024-03-29T04:12:57;971.44;;;6.3;100
75089;BME280;63673;49.928;8.150;2024-03-29T04:13:58;971.38;;;6.29;100
75089;BME280;63673;49.928;8.150;2024-03-29T04:15:00;971.47;;;6.3;100
75089;BME280;63673;49.928;8.150;2024-03-29T04:16:02;971.45;;;6.3;100
75089;BME280;63673;49.928;8.150;2024-03-29T04:17:04;971.54;;;6.32;100
75089;BME280;63673;49.928;8.150;2024-03-29T04:18:05;971.45;;;6.32;100
75089;BME280;63673;49.928;8.150;2024-03-29T04:19:07;971.53;;;6.32;100
75089;BME280;63673;49.928;8.150;2024-03-29T04:20:09;971.61;;;6.32;100
75089;BME280;63673;49.928;8.150;2024-03-29T04:21:11;971.61;;;6.32;100
75089;BME280;63673;49.928;8.150;2024-03-29T04:22:12;971.63;;;6.31;100
75089;BME280;63673;49.928;8.150;2024-03-29T04:23:14;971.64;;;6.31;100
75089;BME280;63673;49.928;8.150;2024-03-29T04:24:16;971.59;;;6.3;100
75089;BME280;63673;49.928;8.150;2024-03-29T04:25:17;971.58;;;6.29;100
75089;BME280;63673;49.928;8.150;2024-03-29T04:26:19;971.62;;;6.28;100
75089;BME280;63673;49.928;8.150;2024-03-29T04:27:21;971.59;;;6.25;100
75089;BME280;63673;49.928;8.150;2024-03-29T04:28:23;971.47;;;6.24;100
75089;BME280;63673;49.928;8.150;2024-03-29T04:29:24;971.43;;;6.22;100
75089;BME280;63673;49.928;8.150;2024-03-29T04:30:26;971.37;;;6.21;100
75089;BME280;63673;49.928;8.150;2024-03-29T04:31:28;971.4;;;6.21;100
75089;BME280;63673;49.928;8.150;2024-03-29T04:32:30;971.32;;;6.21;100
75089;BME280;63673;49.928;8.150;2024-03-29T04:33:31;971.34;;;6.22;100
75089;BME280;63673;49.928;8.150;2024-03-29T04:34:33;971.35;;;6.22;100
75089;BME280;63673;49.928;8.150;2024-03-29T04:35:35;971.32;;;6.23;100
75089;BME280;63673;49.928;8.150;2024-03-29T04:36:36;971.3;;;6.22;100
75089;BME280;63673;49.928;8.150;2024-03-29T04:37:38;971.22;;;6.23;100
75089;BME280;63673;49.928;8.150;2024-03-29T04:38:40;971.24;;;6.22;100
75089;BME280;63673;49.928;8.150;2024-03-29T04:39:42;971.13;;;6.23;100
75089;BME280;63673;49.928;8.150;2024-03-29T04:40:43;971.19;;;6.22;100
75089;BME280;63673;49.928;8.150;2024-03-29T04:41:45;971.19;;;6.22;100
75089;BME280;63673;49.928;8.150;2024-03-29T04:42:47;971.19;;;6.2;100
75089;BME280;63673;49.928;8.150;2024-03-29T04:43:50;971.17;;;6.19;100
75089;BME280;63673;49.928;8.150;2024-03-29T04:44:50;971.21;;;6.18;100
75089;BME280;63673;49.928;8.150;2024-03-29T04:46:01;971.21;;;6.16;100
75089;BME280;63673;49.928;8.150;2024-03-29T04:46:54;971.21;;;6.14;100
75089;BME280;63673;49.928;8.150;2024-03-29T04:47:56;971.2;;;6.11;100
75089;BME280;63673;49.928;8.150;2024-03-29T04:48:57;971.26;;;6.1;100
75089;BME280;63673;49.928;8.150;2024-03-29T04:49:59;971.26;;;6.07;100
75089;BME280;63673;49.928;8.150;2024-03-29T04:51:01;971.26;;;6.06;100
75089;BME280;63673;49.928;8.150;2024-03-29T04:52:03;971.25;;;6.05;100
75089;BME280;63673;49.928;8.150;2024-03-29T04:53:04;971.27;;;6.03;100
75089;BME280;63673;49.928;8.150;2024-03-29T04:54:06;971.29;;;6.02;100
75089;BME280;63673;49.928;8.150;2024-03-29T04:55:08;971.27;;;6.01;100
75089;BME280;63673;49.928;8.150;2024-03-29T04:56:09;971.26;;;6;100
75089;BME280;63673;49.928;8.150;2024-03-29T04:57:11;971.27;;;5.99;100
75089;BME280;63673;49.928;8.150;2024-03-29T04:58:13;971.31;;;5.98;100
75089;BME280;63673;49.928;8.150;2024-03-29T04:59:14;971.28;;;5.97;100
75089;BME280;63673;49.928;8.150;2024-03-29T05:00:16;971.31;;;5.95;100
75089;BME280;63673;49.928;8.150;2024-03-29T05:01:18;971.33;;;5.95;100
75089;BME280;63673;49.928;8.150;2024-03-29T05:02:20;971.33;;;5.91;100
75089;BME280;63673;49.928;8.150;2024-03-29T05:03:21;971.32;;;5.9;100
75089;BME280;63673;49.928;8.150;2024-03-29T05:04:23;971.31;;;5.88;100
75089;BME280;63673;49.928;8.150;2024-03-29T05:05:25;971.31;;;5.87;100
75089;BME280;63673;49.928;8.150;2024-03-29T05:06:26;971.32;;;5.85;100
75089;BME280;63673;49.928;8.150;2024-03-29T05:07:28;971.32;;;5.85;100
75089;BME280;63673;49.928;8.150;2024-03-29T05:08:30;971.36;;;5.85;100
75089;BME280;63673;49.928;8.150;2024-03-29T05:09:32;971.37;;;5.82;100
75089;BME280;63673;49.928;8.150;2024-03-29T05:10:33;971.36;;;5.82;100
75089;BME280;63673;49.928;8.150;2024-03-29T05:11:35;971.37;;;5.81;100
75089;BME280;63673;49.928;8.150;2024-03-29T05:12:37;971.33;;;5.8;100
75089;BME280;63673;49.928;8.150;2024-03-29T05:13:39;971.33;;;5.79;100
75089;BME280;63673;49.928;8.150;2024-03-29T05:14:40;971.32;;;5.79;100
75089;BME280;63673;49.928;8.150;2024-03-29T05:15:42;971.3;;;5.77;100
75089;BME280;63673;49.928;8.150;2024-03-29T05:16:44;971.35;;;5.76;100
75089;BME280;63673;49.928;8.150;2024-03-29T05:17:45;971.37;;;5.75;100
75089;BME280;63673;49.928;8.150;2024-03-29T05:18:47;971.42;;;5.76;100
75089;BME280;63673;49.928;8.150;2024-03-29T05:19:49;971.41;;;5.74;100
75089;BME280;63673;49.928;8.150;2024-03-29T05:20:51;971.37;;;5.72;100
75089;BME280;63673;49.928;8.150;2024-03-29T05:21:52;971.37;;;5.72;100
75089;BME280;63673;49.928;8.150;2024-03-29T05:22:54;971.37;;;5.72;100
75089;BME280;63673;49.928;8.150;2024-03-29T05:23:56;971.35;;;5.71;100
75089;BME280;63673;49.928;8.150;2024-03-29T05:24:58;971.35;;;5.71;100
75089;BME280;63673;49.928;8.150;2024-03-29T05:25:59;971.36;;;5.7;100
75089;BME280;63673;49.928;8.150;2024-03-29T05:27:01;971.34;;;5.7;100
75089;BME280;63673;49.928;8.150;2024-03-29T05:28:03;971.38;;;5.7;100
75089;BME280;63673;49.928;8.150;2024-03-29T05:29:04;971.41;;;5.69;100
75089;BME280;63673;49.928;8.150;2024-03-29T05:30:06;971.41;;;5.68;100
75089;BME280;63673;49.928;8.150;2024-03-29T05:31:10;971.41;;;5.67;100
75089;BME280;63673;49.928;8.150;2024-03-29T05:32:10;971.46;;;5.66;100
75089;BME280;63673;49.928;8.150;2024-03-29T05:33:11;971.47;;;5.66;100
75089;BME280;63673;49.928;8.150;2024-03-29T05:34:13;971.5;;;5.66;100
75089;BME280;63673;49.928;8.150;2024-03-29T05:35:15;971.5;;;5.66;100
75089;BME280;63673;49.928;8.150;2024-03-29T05:36:17;971.54;;;5.66;100
75089;BME280;63673;49.928;8.150;2024-03-29T05:37:18;971.56;;;5.66;100
75089;BME280;63673;49.928;8.150;2024-03-29T05:38:20;971.59;;;5.65;100
75089;BME280;63673;49.928;8.150;2024-03-29T05:39:22;971.6;;;5.64;100
75089;BME280;63673;49.928;8.150;2024-03-29T05:40:23;971.61;;;5.65;100
75089;BME280;63673;49.928;8.150;2024-03-29T05:41:25;971.65;;;5.66;100
75089;BME280;63673;49.928;8.150;2024-03-29T05:42:27;971.67;;;5.66;100
75089;BME280;63673;49.928;8.150;2024-03-29T05:43:29;971.63;;;5.67;100
75089;BME280;63673;49.928;8.150;2024-03-29T05:44:30;971.68;;;5.67;100
75089;BME280;63673;49.928;8.150;2024-03-29T05:45:32;971.64;;;5.67;100
75089;BME280;63673;49.928;8.150;2024-03-29T05:46:34;971.63;;;5.68;100
75089;BME280;63673;49.928;8.150;2024-03-29T05:47:36;971.68;;;5.69;100
75089;BME280;63673;49.928;8.150;2024-03-29T05:48:37;971.71;;;5.7;100
75089;BME280;63673;49.928;8.150;2024-03-29T05:49:39;971.7;;;5.7;100
75089;BME280;63673;49.928;8.150;2024-03-29T05:50:41;971.66;;;5.72;100
75089;BME280;63673;49.928;8.150;2024-03-29T05:51:42;971.73;;;5.73;100